sensor_id;sensor_type;location;lat;lon;timestamp;P1;durP1;ratioP1;P2;durP2;ratioP2
10511;SDS011;5304;48.604;2.096;2022-10-14T00:00:02;3.77;;;3.47;;
10511;SDS011;5304;48.604;2.096;2022-10-14T00:02:48;3.97;;;3.57;;
10511;SDS011;5304;48.604;2.096;2022-10-14T00:05:33;5.70;;;3.67;;
10511;SDS011;5304;48.604;2.096;2022-10-14T00:08:17;3.80;;;3.50;;
10511;SDS011;5304;48.604;2.096;2022-10-14T00:11:05;3.70;;;3.40;;
10511;SDS011;5304;48.604;2.096;2022-10-14T00:13:54;3.70;;;3.40;;
10511;SDS011;5304;48.604;2.096;2022-10-14T00:16:41;3.70;;;3.40;;
10511;SDS011;5304;48.604;2.096;2022-10-14T00:19:27;3.87;;;3.57;;
10511;SDS011;5304;48.604;2.096;2022-10-14T00:22:12;3.33;;;3.10;;
10511;SDS011;5304;48.604;2.096;2022-10-14T00:24:56;4.67;;;2.90;;
10511;SDS011;5304;48.604;2.096;2022-10-14T00:27:41;3.87;;;2.80;;
10511;SDS011;5304;48.604;2.096;2022-10-14T00:30:25;4.30;;;2.93;;
10511;SDS011;5304;48.604;2.096;2022-10-14T00:33:10;3.17;;;2.90;;
10511;SDS011;5304;48.604;2.096;2022-10-14T00:38:40;2.80;;;2.60;;
10511;SDS011;5304;48.604;2.096;2022-10-14T00:41:29;2.80;;;2.60;;
10511;SDS011;5304;48.604;2.096;2022-10-14T00:47:00;3.10;;;2.80;;
10511;SDS011;5304;48.604;2.096;2022-10-14T00:49:45;2.83;;;2.53;;
10511;SDS011;5304;48.604;2.096;2022-10-14T00:52:29;2.73;;;2.53;;
10511;SDS011;5304;48.604;2.096;2022-10-14T00:55:15;4.13;;;2.87;;
10511;SDS011;5304;48.604;2.096;2022-10-14T00:58:01;3.47;;;3.17;;
10511;SDS011;5304;48.604;2.096;2022-10-14T01:00:45;3.27;;;2.60;;
10511;SDS011;5304;48.604;2.096;2022-10-14T01:03:31;4.40;;;3.17;;
10511;SDS011;5304;48.604;2.096;2022-10-14T01:21:37;4.77;;;3.37;;
10511;SDS011;5304;48.604;2.096;2022-10-14T01:24:53;5.63;;;3.90;;
10511;SDS011;5304;48.604;2.096;2022-10-14T01:31:16;6.50;;;4.23;;
10511;SDS011;5304;48.604;2.096;2022-10-14T01:34:08;5.53;;;4.33;;
10511;SDS011;5304;48.604;2.096;2022-10-14T01:36:57;6.57;;;4.20;;
10511;SDS011;5304;48.604;2.096;2022-10-14T01:39:50;5.97;;;3.90;;
10511;SDS011;5304;48.604;2.096;2022-10-14T01:42:39;7.10;;;5.63;;
10511;SDS011;5304;48.604;2.096;2022-10-14T01:45:25;8.73;;;6.10;;
10511;SDS011;5304;48.604;2.096;2022-10-14T01:48:16;8.23;;;7.10;;
10511;SDS011;5304;48.604;2.096;2022-10-14T01:51:03;11.40;;;7.40;;
10511;SDS011;5304;48.604;2.096;2022-10-14T01:53:55;11.67;;;7.53;;
10511;SDS011;5304;48.604;2.096;2022-10-14T01:56:43;9.53;;;6.40;;
10511;SDS011;5304;48.604;2.096;2022-10-14T01:59:31;9.73;;;6.13;;
10511;SDS011;5304;48.604;2.096;2022-10-14T02:02:17;8.63;;;6.47;;
10511;SDS011;5304;48.604;2.096;2022-10-14T02:05:05;9.00;;;5.97;;
10511;SDS011;5304;48.604;2.096;2022-10-14T02:11:24;7.07;;;6.37;;
10511;SDS011;5304;48.604;2.096;2022-10-14T02:14:19;8.13;;;6.10;;
10511;SDS011;5304;48.604;2.096;2022-10-14T02:17:08;7.33;;;6.63;;
10511;SDS011;5304;48.604;2.096;2022-10-14T02:20:09;6.40;;;5.37;;
10511;SDS011;5304;48.604;2.096;2022-10-14T02:23:05;6.67;;;4.67;;
10511;SDS011;5304;48.604;2.096;2022-10-14T02:25:56;7.27;;;4.67;;
10511;SDS011;5304;48.604;2.096;2022-10-14T02:28:42;6.33;;;4.50;;
10511;SDS011;5304;48.604;2.096;2022-10-14T02:31:28;9.70;;;4.93;;
10511;SDS011;5304;48.604;2.096;2022-10-14T02:34:17;6.37;;;4.70;;
10511;SDS011;5304;48.604;2.096;2022-10-14T02:37:05;9.47;;;5.60;;
10511;SDS011;5304;48.604;2.096;2022-10-14T02:39:58;6.40;;;4.93;;
10511;SDS011;5304;48.604;2.096;2022-10-14T02:42:47;7.57;;;5.17;;
10511;SDS011;5304;48.604;2.096;2022-10-14T02:45:32;8.00;;;5.17;;
10511;SDS011;5304;48.604;2.096;2022-10-14T02:48:18;9.43;;;5.53;;
10511;SDS011;5304;48.604;2.096;2022-10-14T02:51:02;9.47;;;5.67;;
10511;SDS011;5304;48.604;2.096;2022-10-14T02:53:46;7.20;;;5.17;;
10511;SDS011;5304;48.604;2.096;2022-10-14T02:56:31;6.10;;;4.87;;
10511;SDS011;5304;48.604;2.096;2022-10-14T02:59:15;5.07;;;4.40;;
10511;SDS011;5304;48.604;2.096;2022-10-14T03:02:00;6.77;;;3.97;;
10511;SDS011;5304;48.604;2.096;2022-10-14T03:04:44;3.83;;;3.47;;
10511;SDS011;5304;48.604;2.096;2022-10-14T03:07:29;4.90;;;3.77;;
10511;SDS011;5304;48.604;2.096;2022-10-14T03:10:15;3.77;;;3.00;;
10511;SDS011;5304;48.604;2.096;2022-10-14T03:13:00;4.67;;;3.50;;
10511;SDS011;5304;48.604;2.096;2022-10-14T03:15:46;4.77;;;3.13;;
10511;SDS011;5304;48.604;2.096;2022-10-14T03:18:32;6.50;;;3.20;;
10511;SDS011;5304;48.604;2.096;2022-10-14T03:21:17;4.93;;;2.90;;
10511;SDS011;5304;48.604;2.096;2022-10-14T03:24:02;3.50;;;2.70;;
10511;SDS011;5304;48.604;2.096;2022-10-14T03:26:46;3.20;;;2.77;;
10511;SDS011;5304;48.604;2.096;2022-10-14T03:29:31;4.87;;;2.63;;
10511;SDS011;5304;48.604;2.096;2022-10-14T03:32:17;2.53;;;2.33;;
10511;SDS011;5304;48.604;2.096;2022-10-14T03:35:02;2.67;;;2.37;;
10511;SDS011;5304;48.604;2.096;2022-10-14T03:37:46;2.50;;;1.93;;
10511;SDS011;5304;48.604;2.096;2022-10-14T03:40:31;2.80;;;2.37;;
10511;SDS011;5304;48.604;2.096;2022-10-14T03:43:16;5.37;;;3.30;;
10511;SDS011;5304;48.604;2.096;2022-10-14T03:46:00;3.83;;;2.63;;
10511;SDS011;5304;48.604;2.096;2022-10-14T03:48:45;4.80;;;2.37;;
10511;SDS011;5304;48.604;2.096;2022-10-14T03:51:29;4.23;;;2.00;;
10511;SDS011;5304;48.604;2.096;2022-10-14T03:54:13;6.07;;;2.00;;
10511;SDS011;5304;48.604;2.096;2022-10-14T03:56:58;4.00;;;1.73;;
10511;SDS011;5304;48.604;2.096;2022-10-14T03:59:42;8.60;;;1.90;;
10511;SDS011;5304;48.604;2.096;2022-10-14T04:02:27;4.97;;;3.00;;
10511;SDS011;5304;48.604;2.096;2022-10-14T04:05:11;2.80;;;2.50;;
10511;SDS011;5304;48.604;2.096;2022-10-14T04:07:56;2.67;;;2.10;;
10511;SDS011;5304;48.604;2.096;2022-10-14T04:10:40;2.40;;;2.20;;
10511;SDS011;5304;48.604;2.096;2022-10-14T04:13:24;3.33;;;2.20;;
10511;SDS011;5304;48.604;2.096;2022-10-14T04:16:09;6.50;;;2.43;;
10511;SDS011;5304;48.604;2.096;2022-10-14T04:18:54;3.63;;;2.33;;
10511;SDS011;5304;48.604;2.096;2022-10-14T04:21:40;2.33;;;1.93;;
10511;SDS011;5304;48.604;2.096;2022-10-14T04:24:25;2.70;;;1.97;;
10511;SDS011;5304;48.604;2.096;2022-10-14T04:27:10;5.70;;;2.10;;
10511;SDS011;5304;48.604;2.096;2022-10-14T04:29:54;2.00;;;1.80;;
10511;SDS011;5304;48.604;2.096;2022-10-14T04:32:39;3.70;;;2.10;;
10511;SDS011;5304;48.604;2.096;2022-10-14T04:35:23;2.60;;;1.80;;
10511;SDS011;5304;48.604;2.096;2022-10-14T04:38:07;3.17;;;2.43;;
10511;SDS011;5304;48.604;2.096;2022-10-14T04:40:52;2.80;;;2.23;;
10511;SDS011;5304;48.604;2.096;2022-10-14T04:43:36;2.63;;;2.20;;
10511;SDS011;5304;48.604;2.096;2022-10-14T04:46:21;3.37;;;2.10;;
10511;SDS011;5304;48.604;2.096;2022-10-14T04:49:06;2.70;;;2.47;;
10511;SDS011;5304;48.604;2.096;2022-10-14T04:51:53;3.47;;;2.90;;
10511;SDS011;5304;48.604;2.096;2022-10-14T04:54:38;4.03;;;2.60;;
10511;SDS011;5304;48.604;2.096;2022-10-14T04:57:22;5.47;;;2.57;;
10511;SDS011;5304;48.604;2.096;2022-10-14T05:00:06;3.60;;;2.73;;
10511;SDS011;5304;48.604;2.096;2022-10-14T05:02:52;3.77;;;2.57;;
10511;SDS011;5304;48.604;2.096;2022-10-14T05:05:36;5.83;;;3.17;;
10511;SDS011;5304;48.604;2.096;2022-10-14T05:08:21;7.30;;;3.80;;
10511;SDS011;5304;48.604;2.096;2022-10-14T05:11:05;4.40;;;3.13;;
10511;SDS011;5304;48.604;2.096;2022-10-14T05:13:49;6.73;;;3.43;;
10511;SDS011;5304;48.604;2.096;2022-10-14T05:16:34;8.23;;;3.67;;
10511;SDS011;5304;48.604;2.096;2022-10-14T05:19:19;5.93;;;3.90;;
10511;SDS011;5304;48.604;2.096;2022-10-14T05:22:03;4.63;;;3.50;;
10511;SDS011;5304;48.604;2.096;2022-10-14T05:24:48;6.23;;;3.80;;
10511;SDS011;5304;48.604;2.096;2022-10-14T05:27:32;4.90;;;3.77;;
10511;SDS011;5304;48.604;2.096;2022-10-14T05:30:17;7.53;;;4.23;;
10511;SDS011;5304;48.604;2.096;2022-10-14T05:33:02;5.33;;;3.80;;
10511;SDS011;5304;48.604;2.096;2022-10-14T05:35:46;5.13;;;4.17;;
10511;SDS011;5304;48.604;2.096;2022-10-14T05:38:31;7.23;;;4.40;;
10511;SDS011;5304;48.604;2.096;2022-10-14T05:41:16;6.23;;;4.90;;
10511;SDS011;5304;48.604;2.096;2022-10-14T05:44:01;5.97;;;4.37;;
10511;SDS011;5304;48.604;2.096;2022-10-14T05:46:46;4.37;;;3.83;;
10511;SDS011;5304;48.604;2.096;2022-10-14T05:49:30;6.30;;;4.07;;
10511;SDS011;5304;48.604;2.096;2022-10-14T05:52:15;7.80;;;4.87;;
10511;SDS011;5304;48.604;2.096;2022-10-14T05:55:00;7.63;;;5.50;;
10511;SDS011;5304;48.604;2.096;2022-10-14T05:57:45;6.07;;;4.30;;
10511;SDS011;5304;48.604;2.096;2022-10-14T06:00:30;6.63;;;5.10;;
10511;SDS011;5304;48.604;2.096;2022-10-14T06:03:14;8.00;;;4.90;;
10511;SDS011;5304;48.604;2.096;2022-10-14T06:05:59;8.30;;;4.97;;
10511;SDS011;5304;48.604;2.096;2022-10-14T06:08:44;8.50;;;4.63;;
10511;SDS011;5304;48.604;2.096;2022-10-14T06:11:29;7.87;;;5.67;;
10511;SDS011;5304;48.604;2.096;2022-10-14T06:14:13;8.27;;;5.20;;
10511;SDS011;5304;48.604;2.096;2022-10-14T06:16:57;8.77;;;6.30;;
10511;SDS011;5304;48.604;2.096;2022-10-14T06:19:42;9.40;;;6.80;;
10511;SDS011;5304;48.604;2.096;2022-10-14T06:22:27;9.10;;;6.73;;
10511;SDS011;5304;48.604;2.096;2022-10-14T06:25:11;12.93;;;6.47;;
10511;SDS011;5304;48.604;2.096;2022-10-14T06:28:03;10.47;;;6.77;;
10511;SDS011;5304;48.604;2.096;2022-10-14T06:30:51;8.07;;;5.97;;
10511;SDS011;5304;48.604;2.096;2022-10-14T06:33:37;8.97;;;6.57;;
10511;SDS011;5304;48.604;2.096;2022-10-14T06:36:22;8.93;;;5.87;;
10511;SDS011;5304;48.604;2.096;2022-10-14T06:39:06;7.70;;;5.53;;
10511;SDS011;5304;48.604;2.096;2022-10-14T06:41:51;6.27;;;5.13;;
10511;SDS011;5304;48.604;2.096;2022-10-14T06:44:35;6.77;;;5.03;;
10511;SDS011;5304;48.604;2.096;2022-10-14T06:47:19;6.97;;;4.20;;
10511;SDS011;5304;48.604;2.096;2022-10-14T06:50:04;5.83;;;4.80;;
10511;SDS011;5304;48.604;2.096;2022-10-14T06:52:49;6.20;;;4.73;;
10511;SDS011;5304;48.604;2.096;2022-10-14T06:55:33;7.33;;;4.70;;
10511;SDS011;5304;48.604;2.096;2022-10-14T06:58:18;6.83;;;5.07;;
10511;SDS011;5304;48.604;2.096;2022-10-14T07:01:03;6.53;;;4.90;;
10511;SDS011;5304;48.604;2.096;2022-10-14T07:03:49;9.47;;;5.17;;
10511;SDS011;5304;48.604;2.096;2022-10-14T07:06:35;9.37;;;5.27;;
10511;SDS011;5304;48.604;2.096;2022-10-14T07:09:19;5.77;;;4.37;;
10511;SDS011;5304;48.604;2.096;2022-10-14T07:12:04;6.40;;;4.80;;
10511;SDS011;5304;48.604;2.096;2022-10-14T07:14:49;5.03;;;4.50;;
10511;SDS011;5304;48.604;2.096;2022-10-14T07:17:33;6.57;;;4.53;;
10511;SDS011;5304;48.604;2.096;2022-10-14T07:20:18;6.40;;;4.70;;
10511;SDS011;5304;48.604;2.096;2022-10-14T07:23:02;8.03;;;4.60;;
10511;SDS011;5304;48.604;2.096;2022-10-14T07:25:46;5.43;;;3.97;;
10511;SDS011;5304;48.604;2.096;2022-10-14T07:28:31;4.87;;;3.80;;
10511;SDS011;5304;48.604;2.096;2022-10-14T07:31:16;6.43;;;3.47;;
10511;SDS011;5304;48.604;2.096;2022-10-14T07:34:01;5.60;;;2.67;;
10511;SDS011;5304;48.604;2.096;2022-10-14T07:36:46;3.83;;;2.73;;
10511;SDS011;5304;48.604;2.096;2022-10-14T07:39:30;5.17;;;2.90;;
10511;SDS011;5304;48.604;2.096;2022-10-14T07:42:16;2.57;;;2.37;;
10511;SDS011;5304;48.604;2.096;2022-10-14T07:45:01;5.77;;;2.80;;
10511;SDS011;5304;48.604;2.096;2022-10-14T07:47:47;4.63;;;2.90;;
10511;SDS011;5304;48.604;2.096;2022-10-14T07:50:33;3.57;;;2.67;;
10511;SDS011;5304;48.604;2.096;2022-10-14T07:53:17;3.93;;;2.83;;
10511;SDS011;5304;48.604;2.096;2022-10-14T07:56:02;3.30;;;2.20;;
10511;SDS011;5304;48.604;2.096;2022-10-14T07:58:47;4.73;;;2.60;;
10511;SDS011;5304;48.604;2.096;2022-10-14T08:01:32;2.80;;;2.50;;
10511;SDS011;5304;48.604;2.096;2022-10-14T08:04:17;2.80;;;2.50;;
10511;SDS011;5304;48.604;2.096;2022-10-14T08:07:02;4.60;;;2.53;;
10511;SDS011;5304;48.604;2.096;2022-10-14T08:09:47;7.90;;;2.67;;
10511;SDS011;5304;48.604;2.096;2022-10-14T08:12:32;4.47;;;2.90;;
10511;SDS011;5304;48.604;2.096;2022-10-14T08:15:16;4.23;;;2.80;;
10511;SDS011;5304;48.604;2.096;2022-10-14T08:18:00;3.73;;;2.53;;
10511;SDS011;5304;48.604;2.096;2022-10-14T08:20:45;5.07;;;3.23;;
10511;SDS011;5304;48.604;2.096;2022-10-14T08:23:29;5.23;;;3.63;;
10511;SDS011;5304;48.604;2.096;2022-10-14T08:29:05;7.53;;;3.90;;
10511;SDS011;5304;48.604;2.096;2022-10-14T08:31:52;5.00;;;4.20;;
10511;SDS011;5304;48.604;2.096;2022-10-14T08:34:38;5.90;;;3.90;;
10511;SDS011;5304;48.604;2.096;2022-10-14T08:37:22;5.17;;;4.40;;
10511;SDS011;5304;48.604;2.096;2022-10-14T08:40:06;4.73;;;4.03;;
10511;SDS011;5304;48.604;2.096;2022-10-14T08:42:59;5.30;;;4.20;;
10511;SDS011;5304;48.604;2.096;2022-10-14T08:45:51;6.70;;;4.87;;
10511;SDS011;5304;48.604;2.096;2022-10-14T08:48:39;8.87;;;5.57;;
10511;SDS011;5304;48.604;2.096;2022-10-14T08:51:25;7.83;;;5.77;;
10511;SDS011;5304;48.604;2.096;2022-10-14T08:54:14;6.57;;;5.03;;
10511;SDS011;5304;48.604;2.096;2022-10-14T08:57:10;7.07;;;6.37;;
10511;SDS011;5304;48.604;2.096;2022-10-14T08:59:59;7.07;;;6.37;;
10511;SDS011;5304;48.604;2.096;2022-10-14T09:02:47;6.13;;;5.53;;
10511;SDS011;5304;48.604;2.096;2022-10-14T09:05:34;6.07;;;5.47;;
10511;SDS011;5304;48.604;2.096;2022-10-14T09:08:22;3.93;;;3.30;;
10511;SDS011;5304;48.604;2.096;2022-10-14T09:11:14;3.67;;;3.37;;
10511;SDS011;5304;48.604;2.096;2022-10-14T09:14:02;4.13;;;3.20;;
10511;SDS011;5304;48.604;2.096;2022-10-14T09:16:53;4.07;;;3.37;;
10511;SDS011;5304;48.604;2.096;2022-10-14T09:19:51;4.70;;;3.10;;
10511;SDS011;5304;48.604;2.096;2022-10-14T09:22:59;4.73;;;3.20;;
10511;SDS011;5304;48.604;2.096;2022-10-14T09:26:10;4.53;;;3.17;;
10511;SDS011;5304;48.604;2.096;2022-10-14T09:29:02;3.80;;;2.93;;
10511;SDS011;5304;48.604;2.096;2022-10-14T09:31:47;2.80;;;2.60;;
10511;SDS011;5304;48.604;2.096;2022-10-14T09:34:33;3.57;;;2.73;;
10511;SDS011;5304;48.604;2.096;2022-10-14T09:37:29;6.10;;;3.30;;
10511;SDS011;5304;48.604;2.096;2022-10-14T09:40:28;5.57;;;3.00;;
10511;SDS011;5304;48.604;2.096;2022-10-14T09:43:20;4.70;;;3.50;;
10511;SDS011;5304;48.604;2.096;2022-10-14T09:46:07;3.23;;;2.93;;
10511;SDS011;5304;48.604;2.096;2022-10-14T09:48:54;3.50;;;3.00;;
10511;SDS011;5304;48.604;2.096;2022-10-14T09:51:39;4.53;;;2.83;;
10511;SDS011;5304;48.604;2.096;2022-10-14T09:54:27;4.70;;;2.50;;
10511;SDS011;5304;48.604;2.096;2022-10-14T09:57:16;4.53;;;2.93;;
10511;SDS011;5304;48.604;2.096;2022-10-14T10:00:03;2.43;;;1.93;;
10511;SDS011;5304;48.604;2.096;2022-10-14T10:02:49;2.83;;;1.80;;
10511;SDS011;5304;48.604;2.096;2022-10-14T10:05:35;2.63;;;1.63;;
10511;SDS011;5304;48.604;2.096;2022-10-14T10:08:20;2.07;;;1.83;;
10511;SDS011;5304;48.604;2.096;2022-10-14T10:11:07;2.63;;;2.00;;
10511;SDS011;5304;48.604;2.096;2022-10-14T10:13:54;2.00;;;1.90;;
10511;SDS011;5304;48.604;2.096;2022-10-14T10:16:39;3.27;;;2.77;;
10511;SDS011;5304;48.604;2.096;2022-10-14T10:19:34;1.50;;;1.40;;
10511;SDS011;5304;48.604;2.096;2022-10-14T10:22:26;4.30;;;2.83;;
10511;SDS011;5304;48.604;2.096;2022-10-14T10:25:18;3.47;;;3.17;;
10511;SDS011;5304;48.604;2.096;2022-10-14T10:28:04;2.53;;;1.90;;
10511;SDS011;5304;48.604;2.096;2022-10-14T10:37:28;2.87;;;1.77;;
10511;SDS011;5304;48.604;2.096;2022-10-14T10:40:52;3.40;;;1.60;;
10511;SDS011;5304;48.604;2.096;2022-10-14T10:53:58;2.97;;;1.20;;
10511;SDS011;5304;48.604;2.096;2022-10-14T10:57:00;1.47;;;1.30;;
10511;SDS011;5304;48.604;2.096;2022-10-14T11:00:11;2.20;;;1.10;;
10511;SDS011;5304;48.604;2.096;2022-10-14T11:05:57;1.20;;;1.10;;
10511;SDS011;5304;48.604;2.096;2022-10-14T11:08:55;1.37;;;1.13;;
10511;SDS011;5304;48.604;2.096;2022-10-14T11:12:11;1.47;;;1.37;;
10511;SDS011;5304;48.604;2.096;2022-10-14T11:39:48;3.43;;;2.03;;
10511;SDS011;5304;48.604;2.096;2022-10-14T11:51:25;1.37;;;1.27;;
10511;SDS011;5304;48.604;2.096;2022-10-14T11:54:29;1.70;;;1.60;;
10511;SDS011;5304;48.604;2.096;2022-10-14T11:57:21;1.77;;;1.50;;
10511;SDS011;5304;48.604;2.096;2022-10-14T12:00:12;2.20;;;1.40;;
10511;SDS011;5304;48.604;2.096;2022-10-14T12:06:10;1.97;;;1.83;;
10511;SDS011;5304;48.604;2.096;2022-10-14T12:12:03;2.10;;;1.70;;
10511;SDS011;5304;48.604;2.096;2022-10-14T12:14:53;1.30;;;1.20;;
10511;SDS011;5304;48.604;2.096;2022-10-14T12:17:48;1.90;;;1.80;;
10511;SDS011;5304;48.604;2.096;2022-10-14T12:20:39;1.37;;;1.27;;
10511;SDS011;5304;48.604;2.096;2022-10-14T12:23:41;1.50;;;1.40;;
10511;SDS011;5304;48.604;2.096;2022-10-14T12:29:44;1.60;;;1.50;;
10511;SDS011;5304;48.604;2.096;2022-10-14T12:32:32;1.63;;;1.30;;
10511;SDS011;5304;48.604;2.096;2022-10-14T12:35:59;1.30;;;1.20;;
10511;SDS011;5304;48.604;2.096;2022-10-14T12:38:41;2.03;;;1.43;;
10511;SDS011;5304;48.604;2.096;2022-10-14T12:41:33;1.90;;;1.67;;
10511;SDS011;5304;48.604;2.096;2022-10-14T12:44:25;4.57;;;1.60;;
10511;SDS011;5304;48.604;2.096;2022-10-14T12:47:32;3.03;;;1.80;;
10511;SDS011;5304;48.604;2.096;2022-10-14T12:53:04;1.33;;;1.17;;
10511;SDS011;5304;48.604;2.096;2022-10-14T12:55:59;1.67;;;1.57;;
10511;SDS011;5304;48.604;2.096;2022-10-14T12:58:56;2.43;;;2.23;;
10511;SDS011;5304;48.604;2.096;2022-10-14T13:01:44;5.70;;;4.23;;
10511;SDS011;5304;48.604;2.096;2022-10-14T13:04:28;7.33;;;5.40;;
10511;SDS011;5304;48.604;2.096;2022-10-14T13:19:15;1.43;;;0.90;;
10511;SDS011;5304;48.604;2.096;2022-10-14T13:25:16;1.20;;;1.10;;
10511;SDS011;5304;48.604;2.096;2022-10-14T13:28:03;1.63;;;1.53;;
10511;SDS011;5304;48.604;2.096;2022-10-14T13:31:07;1.57;;;1.13;;
10511;SDS011;5304;48.604;2.096;2022-10-14T13:34:10;0.90;;;0.90;;
10511;SDS011;5304;48.604;2.096;2022-10-14T13:40:15;3.60;;;3.30;;
10511;SDS011;5304;48.604;2.096;2022-10-14T13:43:11;1.67;;;1.57;;
10511;SDS011;5304;48.604;2.096;2022-10-14T13:46:05;0.80;;;0.80;;
10511;SDS011;5304;48.604;2.096;2022-10-14T13:48:59;1.00;;;1.00;;
10511;SDS011;5304;48.604;2.096;2022-10-14T13:51:53;1.10;;;1.00;;
10511;SDS011;5304;48.604;2.096;2022-10-14T13:54:43;5.77;;;5.37;;
10511;SDS011;5304;48.604;2.096;2022-10-14T13:57:27;2.67;;;2.33;;
10511;SDS011;5304;48.604;2.096;2022-10-14T14:00:28;2.50;;;1.80;;
10511;SDS011;5304;48.604;2.096;2022-10-14T14:03:16;1.07;;;0.90;;
10511;SDS011;5304;48.604;2.096;2022-10-14T14:06:24;0.70;;;0.70;;
10511;SDS011;5304;48.604;2.096;2022-10-14T14:09:13;1.00;;;0.97;;
10511;SDS011;5304;48.604;2.096;2022-10-14T14:12:11;3.03;;;1.10;;
10511;SDS011;5304;48.604;2.096;2022-10-14T14:14:57;1.00;;;0.90;;
10511;SDS011;5304;48.604;2.096;2022-10-14T14:17:43;0.97;;;0.80;;
10511;SDS011;5304;48.604;2.096;2022-10-14T14:20:27;0.90;;;0.90;;
10511;SDS011;5304;48.604;2.096;2022-10-14T14:23:13;1.20;;;1.10;;
10511;SDS011;5304;48.604;2.096;2022-10-14T14:25:57;1.50;;;1.40;;
10511;SDS011;5304;48.604;2.096;2022-10-14T14:28:43;1.30;;;1.20;;
10511;SDS011;5304;48.604;2.096;2022-10-14T14:31:32;1.50;;;1.40;;
10511;SDS011;5304;48.604;2.096;2022-10-14T14:34:18;2.37;;;1.50;;
10511;SDS011;5304;48.604;2.096;2022-10-14T14:37:04;1.87;;;1.67;;
10511;SDS011;5304;48.604;2.096;2022-10-14T14:40:06;2.30;;;2.10;;
10511;SDS011;5304;48.604;2.096;2022-10-14T14:42:59;4.00;;;3.07;;
10511;SDS011;5304;48.604;2.096;2022-10-14T14:45:45;5.73;;;3.40;;
10511;SDS011;5304;48.604;2.096;2022-10-14T14:48:30;4.40;;;3.67;;
10511;SDS011;5304;48.604;2.096;2022-10-14T14:51:16;8.57;;;5.00;;
10511;SDS011;5304;48.604;2.096;2022-10-14T14:54:01;8.10;;;5.03;;
10511;SDS011;5304;48.604;2.096;2022-10-14T14:56:51;4.53;;;3.97;;
10511;SDS011;5304;48.604;2.096;2022-10-14T14:59:51;8.10;;;4.37;;
10511;SDS011;5304;48.604;2.096;2022-10-14T15:02:39;6.23;;;4.50;;
10511;SDS011;5304;48.604;2.096;2022-10-14T15:05:23;6.13;;;4.63;;
10511;SDS011;5304;48.604;2.096;2022-10-14T15:08:13;10.40;;;6.10;;
10511;SDS011;5304;48.604;2.096;2022-10-14T15:11:04;14.83;;;7.97;;
10511;SDS011;5304;48.604;2.096;2022-10-14T15:13:50;12.27;;;6.00;;
10511;SDS011;5304;48.604;2.096;2022-10-14T15:16:40;7.17;;;4.83;;
10511;SDS011;5304;48.604;2.096;2022-10-14T15:19:26;8.03;;;5.13;;
10511;SDS011;5304;48.604;2.096;2022-10-14T15:27:53;8.30;;;5.53;;
10511;SDS011;5304;48.604;2.096;2022-10-14T15:33:24;4.43;;;4.03;;
10511;SDS011;5304;48.604;2.096;2022-10-14T15:36:10;4.73;;;2.83;;
10511;SDS011;5304;48.604;2.096;2022-10-14T15:38:55;4.10;;;3.17;;
10511;SDS011;5304;48.604;2.096;2022-10-14T15:41:41;5.43;;;3.40;;
10511;SDS011;5304;48.604;2.096;2022-10-14T15:44:26;7.47;;;2.93;;
10511;SDS011;5304;48.604;2.096;2022-10-14T15:47:11;5.07;;;3.10;;
10511;SDS011;5304;48.604;2.096;2022-10-14T15:50:06;6.00;;;2.97;;
10511;SDS011;5304;48.604;2.096;2022-10-14T15:52:55;5.33;;;2.90;;
10511;SDS011;5304;48.604;2.096;2022-10-14T15:55:40;4.57;;;2.70;;
10511;SDS011;5304;48.604;2.096;2022-10-14T15:58:25;4.57;;;2.63;;
10511;SDS011;5304;48.604;2.096;2022-10-14T16:01:13;4.57;;;2.77;;
10511;SDS011;5304;48.604;2.096;2022-10-14T16:04:03;3.93;;;3.10;;
10511;SDS011;5304;48.604;2.096;2022-10-14T16:06:49;3.93;;;2.43;;
10511;SDS011;5304;48.604;2.096;2022-10-14T16:09:37;3.43;;;2.30;;
10511;SDS011;5304;48.604;2.096;2022-10-14T16:12:21;6.73;;;2.70;;
10511;SDS011;5304;48.604;2.096;2022-10-14T16:15:50;6.93;;;4.73;;
10511;SDS011;5304;48.604;2.096;2022-10-14T16:18:21;3.60;;;2.50;;
10511;SDS011;5304;48.604;2.096;2022-10-14T16:21:09;9.77;;;2.77;;
10511;SDS011;5304;48.604;2.096;2022-10-14T16:23:58;6.60;;;3.07;;
10511;SDS011;5304;48.604;2.096;2022-10-14T16:26:42;4.47;;;4.07;;
10511;SDS011;5304;48.604;2.096;2022-10-14T16:29:32;3.50;;;2.30;;
10511;SDS011;5304;48.604;2.096;2022-10-14T16:32:18;6.40;;;4.20;;
10511;SDS011;5304;48.604;2.096;2022-10-14T16:35:02;5.27;;;2.83;;
10511;SDS011;5304;48.604;2.096;2022-10-14T16:37:47;3.63;;;2.80;;
10511;SDS011;5304;48.604;2.096;2022-10-14T16:40:32;5.90;;;3.47;;
10511;SDS011;5304;48.604;2.096;2022-10-14T16:43:16;6.23;;;3.20;;
10511;SDS011;5304;48.604;2.096;2022-10-14T16:46:01;7.00;;;3.43;;
10511;SDS011;5304;48.604;2.096;2022-10-14T16:48:48;8.50;;;3.70;;
10511;SDS011;5304;48.604;2.096;2022-10-14T16:51:33;9.77;;;4.00;;
10511;SDS011;5304;48.604;2.096;2022-10-14T16:54:17;7.07;;;3.10;;
10511;SDS011;5304;48.604;2.096;2022-10-14T16:57:02;7.00;;;3.13;;
10511;SDS011;5304;48.604;2.096;2022-10-14T16:59:47;4.50;;;3.63;;
10511;SDS011;5304;48.604;2.096;2022-10-14T17:02:32;4.60;;;3.60;;
10511;SDS011;5304;48.604;2.096;2022-10-14T17:05:16;4.07;;;2.90;;
10511;SDS011;5304;48.604;2.096;2022-10-14T17:08:01;7.30;;;3.07;;
10511;SDS011;5304;48.604;2.096;2022-10-14T17:10:45;3.83;;;3.40;;
10511;SDS011;5304;48.604;2.096;2022-10-14T17:13:32;5.57;;;3.30;;
10511;SDS011;5304;48.604;2.096;2022-10-14T17:16:17;7.60;;;5.07;;
10511;SDS011;5304;48.604;2.096;2022-10-14T17:19:01;8.37;;;3.00;;
10511;SDS011;5304;48.604;2.096;2022-10-14T17:21:46;7.40;;;3.60;;
10511;SDS011;5304;48.604;2.096;2022-10-14T17:24:31;9.20;;;4.80;;
10511;SDS011;5304;48.604;2.096;2022-10-14T17:27:16;8.67;;;4.20;;
10511;SDS011;5304;48.604;2.096;2022-10-14T17:30:06;8.23;;;4.30;;
10511;SDS011;5304;48.604;2.096;2022-10-14T17:32:51;7.77;;;4.17;;
10511;SDS011;5304;48.604;2.096;2022-10-14T17:35:36;11.57;;;4.60;;
10511;SDS011;5304;48.604;2.096;2022-10-14T17:38:20;9.50;;;4.30;;
10511;SDS011;5304;48.604;2.096;2022-10-14T17:41:06;9.60;;;3.90;;
10511;SDS011;5304;48.604;2.096;2022-10-14T17:43:52;9.27;;;3.67;;
10511;SDS011;5304;48.604;2.096;2022-10-14T17:46:38;11.70;;;4.27;;
10511;SDS011;5304;48.604;2.096;2022-10-14T17:49:22;11.13;;;5.80;;
10511;SDS011;5304;48.604;2.096;2022-10-14T17:52:07;6.87;;;3.67;;
10511;SDS011;5304;48.604;2.096;2022-10-14T17:54:51;7.30;;;3.87;;
10511;SDS011;5304;48.604;2.096;2022-10-14T17:57:36;11.40;;;3.77;;
10511;SDS011;5304;48.604;2.096;2022-10-14T18:00:20;12.17;;;3.90;;
10511;SDS011;5304;48.604;2.096;2022-10-14T18:03:04;11.30;;;4.30;;
10511;SDS011;5304;48.604;2.096;2022-10-14T18:05:51;8.60;;;3.80;;
10511;SDS011;5304;48.604;2.096;2022-10-14T18:08:35;10.03;;;4.33;;
10511;SDS011;5304;48.604;2.096;2022-10-14T18:11:21;6.50;;;3.80;;
10511;SDS011;5304;48.604;2.096;2022-10-14T18:14:06;7.43;;;3.50;;
10511;SDS011;5304;48.604;2.096;2022-10-14T18:16:53;7.23;;;3.57;;
10511;SDS011;5304;48.604;2.096;2022-10-14T18:19:38;9.80;;;4.60;;
10511;SDS011;5304;48.604;2.096;2022-10-14T18:22:23;6.93;;;4.03;;
10511;SDS011;5304;48.604;2.096;2022-10-14T18:25:08;6.57;;;4.47;;
10511;SDS011;5304;48.604;2.096;2022-10-14T18:27:52;8.73;;;4.57;;
10511;SDS011;5304;48.604;2.096;2022-10-14T18:30:36;7.20;;;3.90;;
10511;SDS011;5304;48.604;2.096;2022-10-14T18:33:21;9.50;;;3.30;;
10511;SDS011;5304;48.604;2.096;2022-10-14T18:36:07;5.00;;;3.20;;
10511;SDS011;5304;48.604;2.096;2022-10-14T18:38:54;6.27;;;3.30;;
10511;SDS011;5304;48.604;2.096;2022-10-14T18:41:40;5.93;;;3.30;;
10511;SDS011;5304;48.604;2.096;2022-10-14T18:44:26;5.93;;;2.93;;
10511;SDS011;5304;48.604;2.096;2022-10-14T18:47:10;5.40;;;2.87;;
10511;SDS011;5304;48.604;2.096;2022-10-14T18:49:55;4.70;;;3.10;;
10511;SDS011;5304;48.604;2.096;2022-10-14T18:52:42;4.70;;;3.63;;
10511;SDS011;5304;48.604;2.096;2022-10-14T18:55:28;5.03;;;3.17;;
10511;SDS011;5304;48.604;2.096;2022-10-14T18:58:12;5.60;;;3.60;;
10511;SDS011;5304;48.604;2.096;2022-10-14T19:00:56;7.90;;;2.90;;
10511;SDS011;5304;48.604;2.096;2022-10-14T19:03:41;5.43;;;3.30;;
10511;SDS011;5304;48.604;2.096;2022-10-14T19:06:26;4.00;;;3.07;;